UIN weather

Quincy Regional Baldwin Field
Quincy, Illinois, United States

Public forecast

Using degrees Fahrenheit for public forecast. Weather courtesy of forecast.io.

METAR (pilot weather report)

Report is more than 6 hours old.

Retrieved 2019/07/16 13:54 UTC (16 hours ago):

KUIN 161354Z AUTO 13004KT 8SM -RA OVC005 23/22 A2990 RMK AO2 RAE1213B06E20B54 CIG 004V009 SLP120 P0001 T02330217

TAF (pilot weather forecast)

Retrieved 2019/07/17 06:22 UTC (0 seconds ago):

TAF KUIN 170520Z 1706/1806 VRB03KT P6SM SCT035 FM170900 VRB03KT 6SM BR FEW035 FM171300 VRB03KT P6SM FEW035 FM171800 19007KT P6SM SCT050